Pinetta, Florida
Current Conditions -  °F | °C
As of 5:53 AM on Sunday 21 Dec 2014 (Local Time) from KVLD Reporting Station
Overcast Overcast  
Wind Chill: 54°   Ceiling: 600
Heat Index: 54°   Visibility: 10mi
Dew Point: 53°   Wind: 6mph
Humidity: 97%   Direction: 50°NE
Pressure: 30.1"   Gusts: NA
Location:  30.59°N, 83.35°W
Report Text: KVLD 211053Z AUTO 05005KT 10SM OVC006 12/12 A3010 RMK AO2 SLP201 T01220117
Loading
Personal Weather Stations






























Interactive Weather Map New forecast layout! Learn more

10-Day Weather Forecast

Advertisements
Track Severe Weather on mobile